sensor_id;sensor_type;location;lat;lon;timestamp;temperature;humidity
4763;DHT22;2395;50.738;7.122;2022-09-09T00:00:12;17.80;99.90
4763;DHT22;2395;50.738;7.122;2022-09-09T00:02:46;17.80;99.90
4763;DHT22;2395;50.738;7.122;2022-09-09T00:05:26;17.80;99.90
4763;DHT22;2395;50.738;7.122;2022-09-09T00:08:02;17.80;99.90
4763;DHT22;2395;50.738;7.122;2022-09-09T00:10:36;17.90;99.90
4763;DHT22;2395;50.738;7.122;2022-09-09T00:13:13;17.80;99.90
4763;DHT22;2395;50.738;7.122;2022-09-09T00:15:53;17.80;99.90
4763;DHT22;2395;50.738;7.122;2022-09-09T00:18:27;17.80;99.90
4763;DHT22;2395;50.738;7.122;2022-09-09T00:21:04;17.70;99.90
4763;DHT22;2395;50.738;7.122;2022-09-09T00:23:35;17.70;99.90
4763;DHT22;2395;50.738;7.122;2022-09-09T00:26:12;17.70;99.90
4763;DHT22;2395;50.738;7.122;2022-09-09T00:28:52;17.60;99.90
4763;DHT22;2395;50.738;7.122;2022-09-09T00:31:27;17.60;99.90
4763;DHT22;2395;50.738;7.122;2022-09-09T00:34:00;17.60;99.90
4763;DHT22;2395;50.738;7.122;2022-09-09T00:36:36;17.50;99.90
4763;DHT22;2395;50.738;7.122;2022-09-09T00:39:05;17.50;99.90
4763;DHT22;2395;50.738;7.122;2022-09-09T00:41:48;17.50;99.90
4763;DHT22;2395;50.738;7.122;2022-09-09T00:44:30;17.50;99.90
4763;DHT22;2395;50.738;7.122;2022-09-09T00:47:12;17.40;99.90
4763;DHT22;2395;50.738;7.122;2022-09-09T00:50:00;17.40;99.90
4763;DHT22;2395;50.738;7.122;2022-09-09T00:52:41;17.40;99.90
4763;DHT22;2395;50.738;7.122;2022-09-09T00:55:16;17.30;99.90
4763;DHT22;2395;50.738;7.122;2022-09-09T00:57:51;17.30;99.90
4763;DHT22;2395;50.738;7.122;2022-09-09T01:00:24;17.20;99.90
4763;DHT22;2395;50.738;7.122;2022-09-09T01:03:02;17.30;99.90
4763;DHT22;2395;50.738;7.122;2022-09-09T01:05:45;17.30;99.90
4763;DHT22;2395;50.738;7.122;2022-09-09T01:08:42;17.10;99.90
4763;DHT22;2395;50.738;7.122;2022-09-09T01:11:22;17.10;99.90
4763;DHT22;2395;50.738;7.122;2022-09-09T01:14:00;17.00;99.90
4763;DHT22;2395;50.738;7.122;2022-09-09T01:16:36;17.10;99.90
4763;DHT22;2395;50.738;7.122;2022-09-09T01:19:06;17.20;99.90
4763;DHT22;2395;50.738;7.122;2022-09-09T01:21:52;17.20;99.90
4763;DHT22;2395;50.738;7.122;2022-09-09T01:24:31;17.20;99.90
4763;DHT22;2395;50.738;7.122;2022-09-09T01:27:07;17.20;99.90
4763;DHT22;2395;50.738;7.122;2022-09-09T01:29:40;17.20;99.90
4763;DHT22;2395;50.738;7.122;2022-09-09T01:32:38;17.20;99.90
4763;DHT22;2395;50.738;7.122;2022-09-09T01:35:13;17.20;99.90
4763;DHT22;2395;50.738;7.122;2022-09-09T01:37:45;17.10;99.90
4763;DHT22;2395;50.738;7.122;2022-09-09T01:40:13;17.20;99.90
4763;DHT22;2395;50.738;7.122;2022-09-09T01:42:41;17.20;99.90
4763;DHT22;2395;50.738;7.122;2022-09-09T01:45:09;17.20;99.90
4763;DHT22;2395;50.738;7.122;2022-09-09T01:47:37;17.20;99.90
4763;DHT22;2395;50.738;7.122;2022-09-09T01:50:05;17.10;99.90
4763;DHT22;2395;50.738;7.122;2022-09-09T01:52:37;17.20;99.90
4763;DHT22;2395;50.738;7.122;2022-09-09T01:55:05;17.20;99.90
4763;DHT22;2395;50.738;7.122;2022-09-09T01:57:41;17.20;99.90
4763;DHT22;2395;50.738;7.122;2022-09-09T02:00:16;17.20;99.90
4763;DHT22;2395;50.738;7.122;2022-09-09T02:02:52;17.20;99.90
4763;DHT22;2395;50.738;7.122;2022-09-09T02:05:35;17.20;99.90
4763;DHT22;2395;50.738;7.122;2022-09-09T02:08:06;17.30;99.90
4763;DHT22;2395;50.738;7.122;2022-09-09T02:10:40;17.30;99.90
4763;DHT22;2395;50.738;7.122;2022-09-09T02:13:17;17.20;99.90
4763;DHT22;2395;50.738;7.122;2022-09-09T02:15:52;17.20;99.90
4763;DHT22;2395;50.738;7.122;2022-09-09T02:18:26;17.20;99.90
4763;DHT22;2395;50.738;7.122;2022-09-09T02:20:56;17.20;99.90
4763;DHT22;2395;50.738;7.122;2022-09-09T02:23:26;17.20;99.90
4763;DHT22;2395;50.738;7.122;2022-09-09T02:25:56;17.30;99.90
4763;DHT22;2395;50.738;7.122;2022-09-09T02:28:28;17.30;99.90
4763;DHT22;2395;50.738;7.122;2022-09-09T02:31:01;17.30;99.90
4763;DHT22;2395;50.738;7.122;2022-09-09T02:33:32;17.40;99.90
4763;DHT22;2395;50.738;7.122;2022-09-09T02:36:05;17.40;99.90
4763;DHT22;2395;50.738;7.122;2022-09-09T02:38:40;17.50;99.90
4763;DHT22;2395;50.738;7.122;2022-09-09T02:41:16;17.40;99.90
4763;DHT22;2395;50.738;7.122;2022-09-09T02:43:45;17.40;99.90
4763;DHT22;2395;50.738;7.122;2022-09-09T02:46:25;17.40;99.90
4763;DHT22;2395;50.738;7.122;2022-09-09T02:49:06;17.40;99.90
4763;DHT22;2395;50.738;7.122;2022-09-09T02:51:40;17.40;99.90
4763;DHT22;2395;50.738;7.122;2022-09-09T02:54:26;17.40;99.90
4763;DHT22;2395;50.738;7.122;2022-09-09T02:57:04;17.40;99.90
4763;DHT22;2395;50.738;7.122;2022-09-09T02:59:36;17.50;99.90
4763;DHT22;2395;50.738;7.122;2022-09-09T03:02:04;17.50;99.90
4763;DHT22;2395;50.738;7.122;2022-09-09T03:04:32;17.40;99.90
4763;DHT22;2395;50.738;7.122;2022-09-09T03:06:59;17.50;99.90
4763;DHT22;2395;50.738;7.122;2022-09-09T03:09:26;17.40;99.90
4763;DHT22;2395;50.738;7.122;2022-09-09T03:11:53;17.40;99.90
4763;DHT22;2395;50.738;7.122;2022-09-09T03:14:21;17.40;99.90
4763;DHT22;2395;50.738;7.122;2022-09-09T03:16:55;17.50;99.90
4763;DHT22;2395;50.738;7.122;2022-09-09T03:19:23;17.40;99.90
4763;DHT22;2395;50.738;7.122;2022-09-09T03:21:51;17.40;99.90
4763;DHT22;2395;50.738;7.122;2022-09-09T03:24:18;17.40;99.90
4763;DHT22;2395;50.738;7.122;2022-09-09T03:26:45;17.40;99.90
4763;DHT22;2395;50.738;7.122;2022-09-09T03:29:13;17.40;99.90
4763;DHT22;2395;50.738;7.122;2022-09-09T03:31:40;17.40;99.90
4763;DHT22;2395;50.738;7.122;2022-09-09T03:34:09;17.40;99.90
4763;DHT22;2395;50.738;7.122;2022-09-09T03:36:37;17.30;99.90
4763;DHT22;2395;50.738;7.122;2022-09-09T03:39:07;17.40;99.90
4763;DHT22;2395;50.738;7.122;2022-09-09T03:41:34;17.40;99.90
4763;DHT22;2395;50.738;7.122;2022-09-09T03:44:03;17.40;99.90
4763;DHT22;2395;50.738;7.122;2022-09-09T03:46:31;17.40;99.90
4763;DHT22;2395;50.738;7.122;2022-09-09T03:48:58;17.30;99.90
4763;DHT22;2395;50.738;7.122;2022-09-09T03:51:26;17.20;99.90
4763;DHT22;2395;50.738;7.122;2022-09-09T03:53:54;17.30;99.90
4763;DHT22;2395;50.738;7.122;2022-09-09T03:56:22;17.30;99.90
4763;DHT22;2395;50.738;7.122;2022-09-09T03:58:51;17.30;99.90
4763;DHT22;2395;50.738;7.122;2022-09-09T04:01:18;17.30;99.90
4763;DHT22;2395;50.738;7.122;2022-09-09T04:03:45;17.30;99.90
4763;DHT22;2395;50.738;7.122;2022-09-09T04:06:13;17.30;99.90
4763;DHT22;2395;50.738;7.122;2022-09-09T04:08:42;17.30;99.90
4763;DHT22;2395;50.738;7.122;2022-09-09T04:11:10;17.40;99.90
4763;DHT22;2395;50.738;7.122;2022-09-09T04:13:38;17.30;99.90
4763;DHT22;2395;50.738;7.122;2022-09-09T04:16:06;17.40;99.90
4763;DHT22;2395;50.738;7.122;2022-09-09T04:18:36;17.40;99.90
4763;DHT22;2395;50.738;7.122;2022-09-09T04:21:03;17.50;99.90
4763;DHT22;2395;50.738;7.122;2022-09-09T04:23:32;17.50;99.90
4763;DHT22;2395;50.738;7.122;2022-09-09T04:26:02;17.60;99.90
4763;DHT22;2395;50.738;7.122;2022-09-09T04:28:32;17.70;99.90
4763;DHT22;2395;50.738;7.122;2022-09-09T04:31:05;17.70;99.90
4763;DHT22;2395;50.738;7.122;2022-09-09T04:33:33;17.60;99.90
4763;DHT22;2395;50.738;7.122;2022-09-09T04:36:01;17.70;99.90
4763;DHT22;2395;50.738;7.122;2022-09-09T04:38:28;17.60;99.90
4763;DHT22;2395;50.738;7.122;2022-09-09T04:40:55;17.70;99.90
4763;DHT22;2395;50.738;7.122;2022-09-09T04:43:25;17.70;99.90
4763;DHT22;2395;50.738;7.122;2022-09-09T04:45:56;17.60;99.90
4763;DHT22;2395;50.738;7.122;2022-09-09T04:48:23;17.50;99.90
4763;DHT22;2395;50.738;7.122;2022-09-09T04:50:55;17.40;99.90
4763;DHT22;2395;50.738;7.122;2022-09-09T04:53:25;17.50;99.90
4763;DHT22;2395;50.738;7.122;2022-09-09T04:56:00;17.60;99.90
4763;DHT22;2395;50.738;7.122;2022-09-09T04:58:30;17.50;99.90
4763;DHT22;2395;50.738;7.122;2022-09-09T05:01:03;17.50;99.90
4763;DHT22;2395;50.738;7.122;2022-09-09T05:03:32;17.40;99.90
4763;DHT22;2395;50.738;7.122;2022-09-09T05:06:04;17.40;99.90
4763;DHT22;2395;50.738;7.122;2022-09-09T05:08:34;17.50;99.90
4763;DHT22;2395;50.738;7.122;2022-09-09T05:11:01;17.50;99.90
4763;DHT22;2395;50.738;7.122;2022-09-09T05:13:30;17.50;99.90
4763;DHT22;2395;50.738;7.122;2022-09-09T05:15:57;17.40;99.90
4763;DHT22;2395;50.738;7.122;2022-09-09T05:18:25;17.50;99.90
4763;DHT22;2395;50.738;7.122;2022-09-09T05:20:52;17.60;99.90
4763;DHT22;2395;50.738;7.122;2022-09-09T05:23:19;17.60;99.90
4763;DHT22;2395;50.738;7.122;2022-09-09T05:25:55;17.70;99.90
4763;DHT22;2395;50.738;7.122;2022-09-09T05:28:23;17.60;99.90
4763;DHT22;2395;50.738;7.122;2022-09-09T05:30:57;17.60;99.90
4763;DHT22;2395;50.738;7.122;2022-09-09T05:33:26;17.60;99.90
4763;DHT22;2395;50.738;7.122;2022-09-09T05:35:58;17.80;99.90
4763;DHT22;2395;50.738;7.122;2022-09-09T05:42:11;17.70;99.90
4763;DHT22;2395;50.738;7.122;2022-09-09T05:44:38;17.80;99.90
4763;DHT22;2395;50.738;7.122;2022-09-09T05:47:09;17.70;99.90
4763;DHT22;2395;50.738;7.122;2022-09-09T05:49:37;17.70;99.90
4763;DHT22;2395;50.738;7.122;2022-09-09T05:52:04;18.00;99.90
4763;DHT22;2395;50.738;7.122;2022-09-09T05:54:31;18.30;99.90
4763;DHT22;2395;50.738;7.122;2022-09-09T05:56:59;18.40;99.90
4763;DHT22;2395;50.738;7.122;2022-09-09T05:59:26;18.50;99.90
4763;DHT22;2395;50.738;7.122;2022-09-09T06:01:54;18.70;99.90
4763;DHT22;2395;50.738;7.122;2022-09-09T06:04:22;18.40;99.90
4763;DHT22;2395;50.738;7.122;2022-09-09T06:06:50;18.70;99.90
4763;DHT22;2395;50.738;7.122;2022-09-09T06:09:17;18.90;99.90
4763;DHT22;2395;50.738;7.122;2022-09-09T06:11:44;19.00;99.90
4763;DHT22;2395;50.738;7.122;2022-09-09T06:14:11;18.90;99.90
4763;DHT22;2395;50.738;7.122;2022-09-09T06:16:38;18.70;99.90
4763;DHT22;2395;50.738;7.122;2022-09-09T06:19:07;18.60;99.90
4763;DHT22;2395;50.738;7.122;2022-09-09T06:21:37;18.70;99.90
4763;DHT22;2395;50.738;7.122;2022-09-09T06:24:06;18.60;99.90
4763;DHT22;2395;50.738;7.122;2022-09-09T06:26:35;18.50;99.90
4763;DHT22;2395;50.738;7.122;2022-09-09T06:29:06;18.20;99.90
4763;DHT22;2395;50.738;7.122;2022-09-09T06:31:36;18.20;99.90
4763;DHT22;2395;50.738;7.122;2022-09-09T06:34:05;18.20;99.90
4763;DHT22;2395;50.738;7.122;2022-09-09T06:36:36;18.00;99.90
4763;DHT22;2395;50.738;7.122;2022-09-09T06:39:05;18.10;99.90
4763;DHT22;2395;50.738;7.122;2022-09-09T06:41:34;18.10;99.90
4763;DHT22;2395;50.738;7.122;2022-09-09T06:44:02;18.10;99.90
4763;DHT22;2395;50.738;7.122;2022-09-09T06:46:31;18.00;99.90
4763;DHT22;2395;50.738;7.122;2022-09-09T06:48:59;18.40;99.90
4763;DHT22;2395;50.738;7.122;2022-09-09T06:51:28;18.50;99.90
4763;DHT22;2395;50.738;7.122;2022-09-09T06:53:59;18.70;99.90
4763;DHT22;2395;50.738;7.122;2022-09-09T06:56:29;18.60;99.90
4763;DHT22;2395;50.738;7.122;2022-09-09T06:59:02;18.80;99.90
4763;DHT22;2395;50.738;7.122;2022-09-09T07:01:32;18.80;99.90
4763;DHT22;2395;50.738;7.122;2022-09-09T07:04:01;18.80;99.90
4763;DHT22;2395;50.738;7.122;2022-09-09T07:06:34;18.70;99.90
4763;DHT22;2395;50.738;7.122;2022-09-09T07:09:06;18.70;99.90
4763;DHT22;2395;50.738;7.122;2022-09-09T07:11:38;18.70;99.90
4763;DHT22;2395;50.738;7.122;2022-09-09T07:14:08;18.90;99.90
4763;DHT22;2395;50.738;7.122;2022-09-09T07:16:37;19.00;99.90
4763;DHT22;2395;50.738;7.122;2022-09-09T07:19:05;18.90;99.90
4763;DHT22;2395;50.738;7.122;2022-09-09T07:21:32;19.10;99.90
4763;DHT22;2395;50.738;7.122;2022-09-09T07:24:00;19.00;99.90
4763;DHT22;2395;50.738;7.122;2022-09-09T07:26:30;19.00;99.90
4763;DHT22;2395;50.738;7.122;2022-09-09T07:29:07;19.10;99.90
4763;DHT22;2395;50.738;7.122;2022-09-09T07:31:36;19.20;99.90
4763;DHT22;2395;50.738;7.122;2022-09-09T07:34:05;19.20;99.90
4763;DHT22;2395;50.738;7.122;2022-09-09T07:36:34;19.20;99.90
4763;DHT22;2395;50.738;7.122;2022-09-09T07:39:05;19.20;99.90
4763;DHT22;2395;50.738;7.122;2022-09-09T07:41:38;19.20;99.90
4763;DHT22;2395;50.738;7.122;2022-09-09T07:44:08;19.30;99.90
4763;DHT22;2395;50.738;7.122;2022-09-09T07:46:39;19.30;99.90
4763;DHT22;2395;50.738;7.122;2022-09-09T07:49:07;19.30;99.90
4763;DHT22;2395;50.738;7.122;2022-09-09T07:51:37;19.30;99.90
4763;DHT22;2395;50.738;7.122;2022-09-09T07:54:08;19.30;99.90
4763;DHT22;2395;50.738;7.122;2022-09-09T07:56:39;19.20;99.90
4763;DHT22;2395;50.738;7.122;2022-09-09T07:59:07;19.00;99.90
4763;DHT22;2395;50.738;7.122;2022-09-09T08:01:37;19.00;99.90
4763;DHT22;2395;50.738;7.122;2022-09-09T08:04:08;18.90;99.90
4763;DHT22;2395;50.738;7.122;2022-09-09T08:06:42;18.90;99.90
4763;DHT22;2395;50.738;7.122;2022-09-09T08:09:12;18.90;99.90
4763;DHT22;2395;50.738;7.122;2022-09-09T08:11:42;19.00;99.90
4763;DHT22;2395;50.738;7.122;2022-09-09T08:14:11;18.90;99.90
4763;DHT22;2395;50.738;7.122;2022-09-09T08:16:41;19.00;99.90
4763;DHT22;2395;50.738;7.122;2022-09-09T08:19:15;19.10;99.90
4763;DHT22;2395;50.738;7.122;2022-09-09T08:21:43;19.20;99.90
4763;DHT22;2395;50.738;7.122;2022-09-09T08:24:14;19.30;99.90
4763;DHT22;2395;50.738;7.122;2022-09-09T08:26:45;19.30;99.90
4763;DHT22;2395;50.738;7.122;2022-09-09T08:29:14;19.40;99.90
4763;DHT22;2395;50.738;7.122;2022-09-09T08:31:44;19.30;99.90
4763;DHT22;2395;50.738;7.122;2022-09-09T08:34:12;19.30;99.90
4763;DHT22;2395;50.738;7.122;2022-09-09T08:36:42;19.50;99.90
4763;DHT22;2395;50.738;7.122;2022-09-09T08:39:12;19.60;99.90
4763;DHT22;2395;50.738;7.122;2022-09-09T08:42:07;19.70;99.90
4763;DHT22;2395;50.738;7.122;2022-09-09T08:47:54;20.00;99.90
4763;DHT22;2395;50.738;7.122;2022-09-09T08:50:36;19.90;99.90
4763;DHT22;2395;50.738;7.122;2022-09-09T08:53:13;20.00;99.90
4763;DHT22;2395;50.738;7.122;2022-09-09T08:55:45;20.10;99.90
4763;DHT22;2395;50.738;7.122;2022-09-09T08:58:18;20.10;99.90
4763;DHT22;2395;50.738;7.122;2022-09-09T09:01:17;20.20;99.90
4763;DHT22;2395;50.738;7.122;2022-09-09T09:04:10;20.30;99.90
4763;DHT22;2395;50.738;7.122;2022-09-09T09:06:54;20.40;99.90
4763;DHT22;2395;50.738;7.122;2022-09-09T09:09:35;20.40;99.90
4763;DHT22;2395;50.738;7.122;2022-09-09T09:12:16;20.70;99.90
4763;DHT22;2395;50.738;7.122;2022-09-09T09:14:48;20.60;99.90
4763;DHT22;2395;50.738;7.122;2022-09-09T09:17:18;20.70;99.90
4763;DHT22;2395;50.738;7.122;2022-09-09T09:19:48;20.70;99.90
4763;DHT22;2395;50.738;7.122;2022-09-09T09:22:18;20.70;99.90
4763;DHT22;2395;50.738;7.122;2022-09-09T09:24:52;20.70;99.90
4763;DHT22;2395;50.738;7.122;2022-09-09T09:27:29;20.70;99.90
4763;DHT22;2395;50.738;7.122;2022-09-09T09:30:02;20.70;99.90
4763;DHT22;2395;50.738;7.122;2022-09-09T09:32:42;20.70;99.90
4763;DHT22;2395;50.738;7.122;2022-09-09T09:35:23;20.70;99.90
4763;DHT22;2395;50.738;7.122;2022-09-09T09:37:50;20.70;99.90
4763;DHT22;2395;50.738;7.122;2022-09-09T09:40:20;20.70;99.90
4763;DHT22;2395;50.738;7.122;2022-09-09T09:42:51;20.80;99.90
4763;DHT22;2395;50.738;7.122;2022-09-09T09:45:32;20.50;99.90
4763;DHT22;2395;50.738;7.122;2022-09-09T09:48:03;20.50;99.90
4763;DHT22;2395;50.738;7.122;2022-09-09T09:50:32;20.50;99.90
4763;DHT22;2395;50.738;7.122;2022-09-09T09:53:02;20.40;99.90
4763;DHT22;2395;50.738;7.122;2022-09-09T09:55:32;20.60;99.90
4763;DHT22;2395;50.738;7.122;2022-09-09T09:58:04;20.60;99.90
4763;DHT22;2395;50.738;7.122;2022-09-09T10:00:33;20.60;99.90
4763;DHT22;2395;50.738;7.122;2022-09-09T10:03:01;20.60;99.90
4763;DHT22;2395;50.738;7.122;2022-09-09T10:05:29;20.80;99.90
4763;DHT22;2395;50.738;7.122;2022-09-09T10:08:02;20.90;99.90
4763;DHT22;2395;50.738;7.122;2022-09-09T10:10:39;20.80;99.90
4763;DHT22;2395;50.738;7.122;2022-09-09T10:13:19;20.60;99.90
4763;DHT22;2395;50.738;7.122;2022-09-09T10:15:59;20.50;99.90
4763;DHT22;2395;50.738;7.122;2022-09-09T10:18:47;20.50;99.90
4763;DHT22;2395;50.738;7.122;2022-09-09T10:21:36;20.70;99.90
4763;DHT22;2395;50.738;7.122;2022-09-09T10:24:28;20.80;99.90
4763;DHT22;2395;50.738;7.122;2022-09-09T10:27:17;20.90;99.90
4763;DHT22;2395;50.738;7.122;2022-09-09T10:30:02;20.90;99.90
4763;DHT22;2395;50.738;7.122;2022-09-09T10:32:41;21.10;99.90
4763;DHT22;2395;50.738;7.122;2022-09-09T10:35:23;21.00;99.90
4763;DHT22;2395;50.738;7.122;2022-09-09T10:38:15;20.80;99.90
4763;DHT22;2395;50.738;7.122;2022-09-09T10:40:59;20.70;99.90
4763;DHT22;2395;50.738;7.122;2022-09-09T10:43:50;20.70;99.90
4763;DHT22;2395;50.738;7.122;2022-09-09T10:46:46;20.70;99.90
4763;DHT22;2395;50.738;7.122;2022-09-09T10:49:38;20.60;99.90
4763;DHT22;2395;50.738;7.122;2022-09-09T10:52:26;20.70;99.90
4763;DHT22;2395;50.738;7.122;2022-09-09T10:55:02;21.00;99.90
4763;DHT22;2395;50.738;7.122;2022-09-09T10:57:38;21.10;99.90
4763;DHT22;2395;50.738;7.122;2022-09-09T11:00:16;21.10;99.90
4763;DHT22;2395;50.738;7.122;2022-09-09T11:02:48;21.00;99.90
4763;DHT22;2395;50.738;7.122;2022-09-09T11:05:24;21.00;99.90
4763;DHT22;2395;50.738;7.122;2022-09-09T11:07:58;21.30;99.90
4763;DHT22;2395;50.738;7.122;2022-09-09T11:10:37;21.80;99.90
4763;DHT22;2395;50.738;7.122;2022-09-09T11:13:13;22.00;99.90
4763;DHT22;2395;50.738;7.122;2022-09-09T11:15:49;22.40;99.90
4763;DHT22;2395;50.738;7.122;2022-09-09T11:18:21;22.50;99.90
4763;DHT22;2395;50.738;7.122;2022-09-09T11:20:53;22.30;99.90
4763;DHT22;2395;50.738;7.122;2022-09-09T11:23:38;22.00;99.90
4763;DHT22;2395;50.738;7.122;2022-09-09T11:26:13;22.00;99.90
4763;DHT22;2395;50.738;7.122;2022-09-09T11:29:01;22.00;99.90
4763;DHT22;2395;50.738;7.122;2022-09-09T11:31:45;22.40;99.90
4763;DHT22;2395;50.738;7.122;2022-09-09T11:34:36;22.80;99.90
4763;DHT22;2395;50.738;7.122;2022-09-09T11:37:35;23.00;99.90
4763;DHT22;2395;50.738;7.122;2022-09-09T11:40:18;23.30;99.90
4763;DHT22;2395;50.738;7.122;2022-09-09T11:42:49;23.50;99.90
4763;DHT22;2395;50.738;7.122;2022-09-09T11:45:30;23.80;99.90
4763;DHT22;2395;50.738;7.122;2022-09-09T11:48:00;24.10;99.90
4763;DHT22;2395;50.738;7.122;2022-09-09T11:50:33;23.70;99.90
4763;DHT22;2395;50.738;7.122;2022-09-09T11:53:18;23.40;99.90
4763;DHT22;2395;50.738;7.122;2022-09-09T11:55:48;23.20;99.90
4763;DHT22;2395;50.738;7.122;2022-09-09T11:58:29;23.00;99.90
4763;DHT22;2395;50.738;7.122;2022-09-09T12:01:13;22.70;99.90
4763;DHT22;2395;50.738;7.122;2022-09-09T12:03:43;22.70;99.90
4763;DHT22;2395;50.738;7.122;2022-09-09T12:06:17;22.60;99.90
4763;DHT22;2395;50.738;7.122;2022-09-09T12:08:51;22.50;99.90
4763;DHT22;2395;50.738;7.122;2022-09-09T12:11:26;22.50;99.90
4763;DHT22;2395;50.738;7.122;2022-09-09T12:13:56;22.30;99.90
4763;DHT22;2395;50.738;7.122;2022-09-09T12:16:30;22.30;99.90
4763;DHT22;2395;50.738;7.122;2022-09-09T12:19:13;22.10;99.90
4763;DHT22;2395;50.738;7.122;2022-09-09T12:21:46;22.10;99.90
4763;DHT22;2395;50.738;7.122;2022-09-09T12:24:25;22.10;99.90
4763;DHT22;2395;50.738;7.122;2022-09-09T12:27:01;22.10;99.90
4763;DHT22;2395;50.738;7.122;2022-09-09T12:29:42;22.20;99.90
4763;DHT22;2395;50.738;7.122;2022-09-09T12:32:19;22.30;99.90
4763;DHT22;2395;50.738;7.122;2022-09-09T12:34:52;22.20;99.90
4763;DHT22;2395;50.738;7.122;2022-09-09T12:37:28;22.00;99.90
4763;DHT22;2395;50.738;7.122;2022-09-09T12:40:03;21.70;99.90
4763;DHT22;2395;50.738;7.122;2022-09-09T12:42:32;21.80;99.90
4763;DHT22;2395;50.738;7.122;2022-09-09T12:45:00;21.80;99.90
4763;DHT22;2395;50.738;7.122;2022-09-09T12:47:37;21.80;99.90
4763;DHT22;2395;50.738;7.122;2022-09-09T12:50:17;21.90;99.90
4763;DHT22;2395;50.738;7.122;2022-09-09T12:52:48;22.00;99.90
4763;DHT22;2395;50.738;7.122;2022-09-09T12:55:20;21.90;99.90
4763;DHT22;2395;50.738;7.122;2022-09-09T12:57:51;21.80;99.90
4763;DHT22;2395;50.738;7.122;2022-09-09T13:00:20;21.70;99.90
4763;DHT22;2395;50.738;7.122;2022-09-09T13:02:52;21.60;99.90
4763;DHT22;2395;50.738;7.122;2022-09-09T13:05:23;21.60;99.90
4763;DHT22;2395;50.738;7.122;2022-09-09T13:07:51;21.60;99.90
4763;DHT22;2395;50.738;7.122;2022-09-09T13:10:31;21.60;99.90
4763;DHT22;2395;50.738;7.122;2022-09-09T13:13:01;21.60;99.90
4763;DHT22;2395;50.738;7.122;2022-09-09T13:15:29;21.70;99.90
4763;DHT22;2395;50.738;7.122;2022-09-09T13:17:58;21.90;99.90
4763;DHT22;2395;50.738;7.122;2022-09-09T13:20:38;21.80;99.90
4763;DHT22;2395;50.738;7.122;2022-09-09T13:23:05;21.80;99.90
4763;DHT22;2395;50.738;7.122;2022-09-09T13:25:33;21.80;99.90
4763;DHT22;2395;50.738;7.122;2022-09-09T13:28:02;21.60;99.90
4763;DHT22;2395;50.738;7.122;2022-09-09T13:30:32;21.50;99.90
4763;DHT22;2395;50.738;7.122;2022-09-09T13:33:04;21.30;99.90
4763;DHT22;2395;50.738;7.122;2022-09-09T13:35:33;21.40;99.90
4763;DHT22;2395;50.738;7.122;2022-09-09T13:38:07;21.70;99.90
4763;DHT22;2395;50.738;7.122;2022-09-09T13:40:37;22.30;99.90
4763;DHT22;2395;50.738;7.122;2022-09-09T13:43:04;22.70;99.90
4763;DHT22;2395;50.738;7.122;2022-09-09T13:45:32;22.80;99.90
4763;DHT22;2395;50.738;7.122;2022-09-09T13:48:09;23.20;99.90
4763;DHT22;2395;50.738;7.122;2022-09-09T13:50:37;23.90;99.90
4763;DHT22;2395;50.738;7.122;2022-09-09T13:53:04;23.70;99.90
4763;DHT22;2395;50.738;7.122;2022-09-09T13:55:31;23.30;99.90
4763;DHT22;2395;50.738;7.122;2022-09-09T13:58:01;22.80;99.90
4763;DHT22;2395;50.738;7.122;2022-09-09T14:00:32;22.50;99.90
4763;DHT22;2395;50.738;7.122;2022-09-09T14:03:00;22.30;99.90
4763;DHT22;2395;50.738;7.122;2022-09-09T14:05:29;22.50;99.90
4763;DHT22;2395;50.738;7.122;2022-09-09T14:07:58;23.40;99.90
4763;DHT22;2395;50.738;7.122;2022-09-09T14:10:26;23.70;99.90
4763;DHT22;2395;50.738;7.122;2022-09-09T14:12:53;23.20;99.90
4763;DHT22;2395;50.738;7.122;2022-09-09T14:15:21;22.70;99.90
4763;DHT22;2395;50.738;7.122;2022-09-09T14:17:48;22.50;99.90
4763;DHT22;2395;50.738;7.122;2022-09-09T14:20:15;22.40;99.90
4763;DHT22;2395;50.738;7.122;2022-09-09T14:22:42;22.40;99.90
4763;DHT22;2395;50.738;7.122;2022-09-09T14:25:10;22.60;99.90
4763;DHT22;2395;50.738;7.122;2022-09-09T14:27:39;23.50;99.90
4763;DHT22;2395;50.738;7.122;2022-09-09T14:30:07;24.50;99.90
4763;DHT22;2395;50.738;7.122;2022-09-09T14:32:36;24.20;99.90
4763;DHT22;2395;50.738;7.122;2022-09-09T14:35:04;23.80;99.90
4763;DHT22;2395;50.738;7.122;2022-09-09T14:37:31;23.40;99.90
4763;DHT22;2395;50.738;7.122;2022-09-09T14:39:58;23.10;99.90
4763;DHT22;2395;50.738;7.122;2022-09-09T14:42:25;23.50;99.90
4763;DHT22;2395;50.738;7.122;2022-09-09T14:44:52;23.60;99.90
4763;DHT22;2395;50.738;7.122;2022-09-09T14:47:19;23.80;99.90
4763;DHT22;2395;50.738;7.122;2022-09-09T14:49:47;24.00;99.90
4763;DHT22;2395;50.738;7.122;2022-09-09T14:52:15;25.20;99.90
4763;DHT22;2395;50.738;7.122;2022-09-09T14:54:41;26.00;99.90
4763;DHT22;2395;50.738;7.122;2022-09-09T14:57:08;26.20;99.90
4763;DHT22;2395;50.738;7.122;2022-09-09T14:59:35;25.80;99.90
4763;DHT22;2395;50.738;7.122;2022-09-09T15:02:02;25.00;99.90
4763;DHT22;2395;50.738;7.122;2022-09-09T15:04:29;24.60;99.90
4763;DHT22;2395;50.738;7.122;2022-09-09T15:06:58;23.00;99.90
4763;DHT22;2395;50.738;7.122;2022-09-09T15:09:25;22.70;99.90
4763;DHT22;2395;50.738;7.122;2022-09-09T15:11:51;22.40;99.90
4763;DHT22;2395;50.738;7.122;2022-09-09T15:14:18;22.10;99.90
4763;DHT22;2395;50.738;7.122;2022-09-09T15:16:46;21.80;99.90
4763;DHT22;2395;50.738;7.122;2022-09-09T15:19:13;21.70;99.90
4763;DHT22;2395;50.738;7.122;2022-09-09T15:21:39;21.40;99.90
4763;DHT22;2395;50.738;7.122;2022-09-09T15:24:08;21.40;99.90
4763;DHT22;2395;50.738;7.122;2022-09-09T15:26:35;21.40;99.90
4763;DHT22;2395;50.738;7.122;2022-09-09T15:29:05;21.40;99.90
4763;DHT22;2395;50.738;7.122;2022-09-09T15:31:33;21.50;99.90
4763;DHT22;2395;50.738;7.122;2022-09-09T15:34:01;21.40;99.90
4763;DHT22;2395;50.738;7.122;2022-09-09T15:36:30;21.40;99.90
4763;DHT22;2395;50.738;7.122;2022-09-09T15:38:59;21.20;99.90
4763;DHT22;2395;50.738;7.122;2022-09-09T15:41:29;21.00;99.90
4763;DHT22;2395;50.738;7.122;2022-09-09T15:43:57;21.00;99.90
4763;DHT22;2395;50.738;7.122;2022-09-09T15:46:29;21.00;99.90
4763;DHT22;2395;50.738;7.122;2022-09-09T15:49:02;20.60;99.90
4763;DHT22;2395;50.738;7.122;2022-09-09T15:51:32;20.20;99.90
4763;DHT22;2395;50.738;7.122;2022-09-09T15:54:00;20.20;99.90
4763;DHT22;2395;50.738;7.122;2022-09-09T15:56:29;20.10;99.90
4763;DHT22;2395;50.738;7.122;2022-09-09T15:58:58;20.20;99.90
4763;DHT22;2395;50.738;7.122;2022-09-09T16:01:27;20.30;99.90
4763;DHT22;2395;50.738;7.122;2022-09-09T16:03:56;20.30;99.90
4763;DHT22;2395;50.738;7.122;2022-09-09T16:06:26;20.20;99.90
4763;DHT22;2395;50.738;7.122;2022-09-09T16:08:57;20.20;99.90
4763;DHT22;2395;50.738;7.122;2022-09-09T16:11:29;20.30;99.90
4763;DHT22;2395;50.738;7.122;2022-09-09T16:13:58;20.30;99.90
4763;DHT22;2395;50.738;7.122;2022-09-09T16:16:27;20.40;99.90
4763;DHT22;2395;50.738;7.122;2022-09-09T16:18:58;20.40;99.90
4763;DHT22;2395;50.738;7.122;2022-09-09T16:21:30;20.40;99.90
4763;DHT22;2395;50.738;7.122;2022-09-09T16:24:00;20.50;99.90
4763;DHT22;2395;50.738;7.122;2022-09-09T16:26:36;20.40;99.90
4763;DHT22;2395;50.738;7.122;2022-09-09T16:29:05;20.40;99.90
4763;DHT22;2395;50.738;7.122;2022-09-09T16:31:36;20.40;99.90
4763;DHT22;2395;50.738;7.122;2022-09-09T16:34:05;20.40;99.90
4763;DHT22;2395;50.738;7.122;2022-09-09T16:36:37;20.30;99.90
4763;DHT22;2395;50.738;7.122;2022-09-09T16:39:08;20.20;99.90
4763;DHT22;2395;50.738;7.122;2022-09-09T16:41:39;20.20;99.90